Time;durP1;ratioP1;P1;durP2;ratioP2;P2;SDS_P1;SDS_P2;PMS_P1;PMS_P2;Temp;Humidity;BMP_temperature;BMP_pressure;BME280_temperature;BME280_humidity;BME280_pressure;Samples;Min_cycle;Max_cycle;Signal;HPM_P1;HPM_P2
2023/01/20 00:01:10;;;;;;;1.25;0.77;;;0.50;99.90;;;;;;6156860;23;20009;-83
2023/01/20 00:03:40;;;;;;;1.50;1.33;;;0.50;99.90;;;;;;6156655;23;20088;-83
2023/01/20 00:06:07;;;;;;;2.17;1.17;;;0.50;99.90;;;;;;6130406;23;20010;-82
2023/01/20 00:08:32;;;;;;;2.70;1.70;;;0.50;99.90;;;;;;6133015;23;20049;-85
2023/01/20 00:11:06;;;;;;;2.20;1.48;;;0.50;99.90;;;;;;6156749;23;20009;-86
2023/01/20 00:13:32;;;;;;;1.38;1.27;;;0.40;99.90;;;;;;6157630;23;20009;-86
2023/01/20 00:16:00;;;;;;;3.35;1.67;;;0.40;99.90;;;;;;6131831;23;20021;-86
2023/01/20 00:18:26;;;;;;;3.08;1.60;;;0.40;99.90;;;;;;6132871;23;20014;-87
2023/01/20 00:20:51;;;;;;;3.47;1.55;;;0.40;99.90;;;;;;6131369;23;20018;-83
2023/01/20 00:23:17;;;;;;;2.38;1.50;;;0.40;99.90;;;;;;6132470;23;20097;-82
2023/01/20 00:25:42;;;;;;;3.25;1.80;;;0.40;99.90;;;;;;6129995;23;20025;-85
2023/01/20 00:28:08;;;;;;;3.83;2.00;;;0.40;99.90;;;;;;6131853;23;20017;-84
2023/01/20 00:30:33;;;;;;;3.20;2.47;;;0.40;99.90;;;;;;6156103;23;20012;-85
2023/01/20 00:32:59;;;;;;;5.18;2.88;;;0.40;99.90;;;;;;6131006;23;20024;-86
2023/01/20 00:35:24;;;;;;;3.70;3.10;;;0.40;99.90;;;;;;6130090;23;20009;-84
2023/01/20 00:37:50;;;;;;;5.03;3.03;;;0.40;99.90;;;;;;6131120;23;20021;-83
2023/01/20 00:40:16;;;;;;;4.05;3.50;;;0.40;99.90;;;;;;6130100;23;20028;-83
2023/01/20 00:42:41;;;;;;;5.57;3.88;;;0.40;99.90;;;;;;6130723;23;20013;-83
2023/01/20 00:45:07;;;;;;;4.95;4.28;;;0.40;99.90;;;;;;6131066;23;20551;-85
2023/01/20 00:47:33;;;;;;;10.52;5.57;;;0.40;99.90;;;;;;6132899;23;20669;-85
2023/01/20 00:49:58;;;;;;;9.07;6.40;;;0.50;99.90;;;;;;6157048;23;20013;-84
2023/01/20 00:52:24;;;;;;;11.30;7.90;;;0.50;99.90;;;;;;6133772;23;20048;-83
2023/01/20 00:54:49;;;;;;;13.20;8.70;;;0.60;99.90;;;;;;6132285;23;20024;-88
2023/01/20 00:57:15;;;;;;;15.38;10.27;;;0.60;99.90;;;;;;6134475;23;20100;-83
2023/01/20 00:59:40;;;;;;;12.02;9.68;;;0.70;99.90;;;;;;6132791;23;20017;-84
2023/01/20 01:02:06;;;;;;;14.23;10.73;;;0.70;99.90;;;;;;6133162;23;20017;-83
2023/01/20 01:04:31;;;;;;;13.07;10.85;;;0.70;99.90;;;;;;6131447;23;20128;-86
2023/01/20 01:06:57;;;;;;;15.18;12.35;;;0.80;99.90;;;;;;6131578;23;20026;-82
2023/01/20 01:09:22;;;;;;;16.23;12.40;;;0.80;99.90;;;;;;6133845;23;20013;-83
2023/01/20 01:11:48;;;;;;;15.93;12.80;;;0.80;99.90;;;;;;6132876;23;20044;-85
2023/01/20 01:14:14;;;;;;;21.42;13.57;;;0.80;99.90;;;;;;6133341;23;20016;-82
2023/01/20 01:16:40;;;;;;;18.52;13.45;;;0.90;99.90;;;;;;6132212;23;20045;-83
2023/01/20 01:19:05;;;;;;;17.80;12.82;;;0.90;99.90;;;;;;6132581;23;20017;-87
2023/01/20 01:21:31;;;;;;;18.23;13.90;;;0.90;99.90;;;;;;6157106;23;20032;-87
2023/01/20 01:23:56;;;;;;;19.35;14.52;;;0.90;99.90;;;;;;6133990;23;20017;-85
2023/01/20 01:26:22;;;;;;;17.92;14.30;;;0.90;99.90;;;;;;6157612;23;20361;-83
2023/01/20 01:28:48;;;;;;;18.38;13.32;;;0.90;99.90;;;;;;6133760;23;20021;-83
2023/01/20 01:31:15;;;;;;;15.30;12.93;;;1.00;99.90;;;;;;6133161;23;20037;-83
2023/01/20 01:33:41;;;;;;;15.57;13.90;;;0.90;99.90;;;;;;6132500;23;20012;-85
2023/01/20 01:36:11;;;;;;;16.05;12.45;;;1.00;99.90;;;;;;6156447;23;20014;-85
2023/01/20 01:38:36;;;;;;;14.80;11.05;;;1.00;99.90;;;;;;6132075;23;20021;-83
2023/01/20 01:41:02;;;;;;;11.65;10.45;;;1.00;99.90;;;;;;6133097;23;20068;-85
2023/01/20 01:43:34;;;;;;;12.77;11.48;;;1.00;99.90;;;;;;6158224;23;20022;-86
2023/01/20 01:45:59;;;;;;;12.80;11.07;;;2.30;99.90;;;;;;6132508;23;20017;-85
2023/01/20 01:48:33;;;;;;;12.70;10.77;;;1.00;99.90;;;;;;6132574;23;20021;-83
2023/01/20 01:51:04;;;;;;;13.20;11.15;;;1.00;99.90;;;;;;6132954;23;20010;-86
2023/01/20 01:53:36;;;;;;;14.18;11.82;;;0.90;99.90;;;;;;6132803;23;20040;-88
2023/01/20 01:56:02;;;;;;;15.05;11.52;;;1.00;99.90;;;;;;6132295;23;20084;-83
2023/01/20 01:58:32;;;;;;;12.95;11.65;;;1.00;99.90;;;;;;6156313;23;20022;-88
2023/01/20 02:00:58;;;;;;;14.43;11.48;;;1.00;99.90;;;;;;6132828;23;20021;-88
2023/01/20 02:03:27;;;;;;;14.32;12.48;;;0.90;99.90;;;;;;6132448;23;20069;-84
2023/01/20 02:05:54;;;;;;;15.43;11.82;;;0.90;99.90;;;;;;6132367;23;20017;-83
2023/01/20 02:08:20;;;;;;;15.23;11.52;;;0.90;99.90;;;;;;6158046;23;20061;-86
2023/01/20 02:10:45;;;;;;;15.50;12.43;;;0.90;99.90;;;;;;6130406;23;20033;-84
2023/01/20 02:13:11;;;;;;;15.05;12.57;;;0.90;99.90;;;;;;6157354;23;20013;-83
2023/01/20 02:16:00;;;;;;;16.35;12.73;;;0.90;99.90;;;;;;6132154;23;20013;-85
2023/01/20 02:18:52;;;;;;;16.73;12.82;;;0.90;99.90;;;;;;6158601;23;20705;-82
2023/01/20 02:21:26;;;;;;;16.15;13.05;;;0.90;99.90;;;;;;6132729;23;20014;-82
2023/01/20 02:24:30;;;;;;;18.75;13.82;;;0.80;99.90;;;;;;6132264;23;20030;-83
2023/01/20 02:27:01;;;;;;;19.17;14.00;;;0.90;99.90;;;;;;6132086;23;20044;-83
2023/01/20 02:29:46;;;;;;;16.02;13.60;;;0.90;99.90;;;;;;6133534;23;20021;-83
2023/01/20 02:32:41;;;;;;;17.88;14.45;;;0.80;99.90;;;;;;6131426;23;20845;-82
2023/01/20 02:35:22;;;;;;;19.27;14.82;;;0.80;99.90;;;;;;6156313;23;20017;-83
2023/01/20 02:38:00;;;;;;;18.25;14.27;;;0.90;99.90;;;;;;6131863;23;20021;-83
2023/01/20 02:40:55;;;;;;;17.17;14.85;;;0.90;99.90;;;;;;6131820;23;20013;-83
2023/01/20 02:43:29;;;;;;;17.80;14.80;;;0.90;99.90;;;;;;6131270;23;20017;-84
2023/01/20 02:46:30;;;;;;;19.00;14.75;;;0.90;99.90;;;;;;6131424;23;20027;-84
2023/01/20 02:49:16;;;;;;;21.20;15.65;;;0.80;99.90;;;;;;6124839;23;20021;-83
2023/01/20 02:51:46;;;;;;;21.80;16.35;;;0.80;99.90;;;;;;6131987;23;20013;-85
2023/01/20 02:54:15;;;;;;;22.58;16.30;;;0.80;99.90;;;;;;6131778;23;20045;-85
2023/01/20 02:56:41;;;;;;;21.85;16.05;;;0.80;99.90;;;;;;6130991;23;20446;-82
2023/01/20 02:59:13;;;;;;;19.13;14.75;;;0.80;99.90;;;;;;6131893;23;20021;-84
2023/01/20 03:01:46;;;;;;;19.77;15.00;;;0.80;99.90;;;;;;6132029;23;20024;-83
2023/01/20 03:04:15;;;;;;;21.83;15.57;;;0.80;99.90;;;;;;6155563;23;20045;-84
2023/01/20 03:06:46;;;;;;;20.52;15.50;;;0.70;99.90;;;;;;6154259;23;20018;-83
2023/01/20 03:09:17;;;;;;;21.92;16.98;;;0.80;99.90;;;;;;6131284;23;20066;-83
2023/01/20 03:11:55;;;;;;;23.00;16.45;;;0.80;99.90;;;;;;6155662;23;20037;-83
2023/01/20 03:14:21;;;;;;;23.73;17.63;;;0.80;99.90;;;;;;6156100;23;20021;-83
2023/01/20 03:16:47;;;;;;;20.95;17.33;;;0.80;99.90;;;;;;6130564;23;20075;-83
2023/01/20 03:19:14;;;;;;;27.15;18.38;;;0.80;99.90;;;;;;6131006;23;20013;-85
2023/01/20 03:21:40;;;;;;;20.60;16.42;;;0.80;99.90;;;;;;6131764;23;20088;-83
2023/01/20 03:24:06;;;;;;;20.95;16.48;;;0.80;99.90;;;;;;6132581;23;20320;-84
2023/01/20 03:26:32;;;;;;;23.70;16.73;;;1.20;99.90;;;;;;6155524;23;20037;-83
2023/01/20 03:29:01;;;;;;;22.15;16.58;;;0.90;99.90;;;;;;6131904;23;20021;-87
2023/01/20 03:31:36;;;;;;;23.27;17.42;;;0.90;99.90;;;;;;6132174;23;20075;-82
2023/01/20 03:34:09;;;;;;;25.90;16.27;;;0.90;99.90;;;;;;6155160;23;20020;-82
2023/01/20 03:36:36;;;;;;;23.20;16.85;;;0.80;99.90;;;;;;6129655;23;20017;-84
2023/01/20 03:39:02;;;;;;;24.20;16.15;;;0.80;99.90;;;;;;6130170;23;20009;-83
2023/01/20 03:41:46;;;;;;;25.83;16.73;;;0.90;99.90;;;;;;6131347;23;20025;-86
2023/01/20 03:44:48;;;;;;;22.10;16.05;;;0.80;99.90;;;;;;6130068;23;20014;-83
2023/01/20 03:47:41;;;;;;;23.27;15.50;;;0.80;99.90;;;;;;6094705;23;20451;-84
2023/01/20 03:50:19;;;;;;;21.98;15.32;;;0.80;99.90;;;;;;6155228;23;20017;-82
2023/01/20 03:52:54;;;;;;;22.27;16.38;;;0.80;99.90;;;;;;6130751;23;20013;-82
2023/01/20 03:55:51;;;;;;;23.47;15.63;;;0.80;99.90;;;;;;6155732;23;20009;-83
2023/01/20 03:58:29;;;;;;;19.42;14.60;;;0.80;99.90;;;;;;6111181;23;20245;-82
2023/01/20 04:00:56;;;;;;;25.38;15.98;;;0.80;99.90;;;;;;6131029;23;20018;-83
2023/01/20 04:03:34;;;;;;;23.95;16.80;;;0.90;99.90;;;;;;6131183;23;20017;-82
2023/01/20 04:06:03;;;;;;;25.33;17.30;;;0.90;99.90;;;;;;6154218;23;20060;-82
2023/01/20 04:08:35;;;;;;;21.15;15.70;;;0.90;99.90;;;;;;6129634;23;20017;-86
2023/01/20 04:11:04;;;;;;;22.42;15.45;;;0.80;99.90;;;;;;6156065;23;20016;-85
2023/01/20 04:13:30;;;;;;;24.27;15.65;;;0.80;99.90;;;;;;6156279;23;20014;-86
2023/01/20 04:15:58;;;;;;;23.45;15.25;;;0.90;99.90;;;;;;6131118;23;20064;-83
2023/01/20 04:18:24;;;;;;;25.90;15.55;;;0.80;99.90;;;;;;6131180;23;20020;-83
2023/01/20 04:20:55;;;;;;;23.13;15.23;;;0.80;99.90;;;;;;6130363;23;20052;-86
2023/01/20 04:23:44;;;;;;;29.15;17.27;;;0.80;99.90;;;;;;6131900;23;20017;-83
2023/01/20 04:26:10;;;;;;;22.60;15.77;;;0.80;99.90;;;;;;6157817;23;20047;-83
2023/01/20 04:28:35;;;;;;;23.55;15.23;;;0.90;99.90;;;;;;6133207;23;20081;-86
2023/01/20 04:31:01;;;;;;;24.60;16.70;;;0.90;99.90;;;;;;6156576;23;20010;-83
2023/01/20 04:33:27;;;;;;;23.70;16.83;;;0.90;99.90;;;;;;6133093;23;20020;-83
2023/01/20 04:35:52;;;;;;;22.23;15.73;;;0.90;99.90;;;;;;6130994;23;20087;-83
2023/01/20 04:38:18;;;;;;;23.70;16.15;;;0.90;99.90;;;;;;6156875;23;20344;-84
2023/01/20 04:40:43;;;;;;;24.42;16.95;;;0.80;99.90;;;;;;6130793;23;20022;-84
2023/01/20 04:43:10;;;;;;;25.35;16.23;;;0.80;99.90;;;;;;6133108;23;20064;-83
2023/01/20 04:45:36;;;;;;;24.52;16.40;;;0.90;99.90;;;;;;6132082;23;20025;-85
2023/01/20 04:48:06;;;;;;;25.85;17.33;;;0.90;99.90;;;;;;6133365;23;20013;-83
2023/01/20 04:50:31;;;;;;;23.25;16.90;;;1.90;99.90;;;;;;6132755;23;20009;-84
2023/01/20 04:52:57;;;;;;;22.70;16.25;;;0.90;99.90;;;;;;6133762;23;20075;-83
2023/01/20 04:55:25;;;;;;;25.13;16.98;;;0.90;99.90;;;;;;6131692;23;20020;-85
2023/01/20 04:57:50;;;;;;;26.70;17.38;;;0.90;99.90;;;;;;6132495;23;20028;-83
2023/01/20 05:00:18;;;;;;;24.27;17.35;;;0.90;99.90;;;;;;6153680;23;20013;-83
2023/01/20 05:02:45;;;;;;;26.05;17.23;;;0.90;99.90;;;;;;6128785;23;20088;-83
2023/01/20 05:05:11;;;;;;;25.45;16.73;;;0.90;99.90;;;;;;6155715;23;20359;-84
2023/01/20 05:07:37;;;;;;;22.27;16.38;;;0.90;99.90;;;;;;6131571;23;20100;-84
2023/01/20 05:10:03;;;;;;;21.50;16.35;;;0.90;99.90;;;;;;6132274;23;20017;-83
2023/01/20 05:12:29;;;;;;;23.33;15.77;;;0.90;99.90;;;;;;6131473;23;20042;-84
2023/01/20 05:14:54;;;;;;;23.92;16.30;;;0.90;99.90;;;;;;6130311;23;20108;-82
2023/01/20 05:17:20;;;;;;;24.95;17.95;;;0.90;99.90;;;;;;6131646;23;20068;-84
2023/01/20 05:19:45;;;;;;;22.30;17.50;;;0.90;99.90;;;;;;6132639;23;20014;-84
2023/01/20 05:22:11;;;;;;;22.90;17.33;;;0.90;99.90;;;;;;6133138;23;20178;-83
2023/01/20 05:24:37;;;;;;;23.02;17.27;;;0.90;99.90;;;;;;6132139;23;20358;-83
2023/01/20 05:27:02;;;;;;;24.23;17.35;;;0.90;99.90;;;;;;6132274;23;20018;-83
2023/01/20 05:29:29;;;;;;;26.20;17.17;;;0.90;99.90;;;;;;6156222;23;20052;-84
2023/01/20 05:31:55;;;;;;;23.38;17.45;;;0.90;99.90;;;;;;6129882;23;20041;-84
2023/01/20 05:34:21;;;;;;;23.85;17.23;;;0.90;99.90;;;;;;6127974;23;20017;-83
2023/01/20 05:36:51;;;;;;;22.30;16.50;;;0.90;99.90;;;;;;6127104;23;20017;-84
2023/01/20 05:39:17;;;;;;;22.20;17.60;;;0.90;99.90;;;;;;6128588;23;20334;-83
2023/01/20 05:41:44;;;;;;;25.23;18.67;;;0.80;99.90;;;;;;6151722;23;20027;-86
2023/01/20 05:44:10;;;;;;;26.23;18.20;;;0.90;99.90;;;;;;6148252;23;20718;-86
2023/01/20 05:46:37;;;;;;;28.10;18.33;;;0.90;99.90;;;;;;6149285;23;20021;-86
2023/01/20 05:49:03;;;;;;;25.77;18.30;;;0.90;99.90;;;;;;6102102;23;20009;-86
2023/01/20 05:51:29;;;;;;;25.40;18.58;;;0.90;99.90;;;;;;6127010;23;20012;-86
2023/01/20 05:53:54;;;;;;;27.48;18.27;;;0.90;99.90;;;;;;6127242;23;20021;-85
2023/01/20 05:56:20;;;;;;;25.45;17.77;;;0.90;99.90;;;;;;6126964;23;20009;-84
2023/01/20 05:58:46;;;;;;;26.30;17.92;;;0.90;99.90;;;;;;6123925;23;20140;-85
2023/01/20 06:01:13;;;;;;;26.42;18.58;;;0.90;99.90;;;;;;6152199;23;20354;-84
2023/01/20 06:04:00;;;;;;;28.52;19.40;;;0.90;99.90;;;;;;6127659;23;20025;-84
2023/01/20 06:06:26;;;;;;;28.40;18.85;;;0.80;99.90;;;;;;6123147;23;20020;-83
2023/01/20 06:08:52;;;;;;;27.08;19.70;;;0.90;99.90;;;;;;6129593;23;20013;-85
2023/01/20 06:11:18;;;;;;;28.00;18.65;;;0.90;99.90;;;;;;6156387;23;20013;-85
2023/01/20 06:13:47;;;;;;;24.35;17.92;;;0.90;99.90;;;;;;6127050;23;20014;-83
2023/01/20 06:16:13;;;;;;;26.60;18.40;;;0.90;99.90;;;;;;6127086;23;20316;-85
2023/01/20 06:18:39;;;;;;;27.17;18.83;;;0.90;99.90;;;;;;6125406;23;20466;-85
2023/01/20 06:21:05;;;;;;;28.13;20.20;;;0.90;99.90;;;;;;6125895;23;20018;-85
2023/01/20 06:23:31;;;;;;;27.10;19.20;;;1.00;99.90;;;;;;6126285;23;20021;-85
2023/01/20 06:26:01;;;;;;;33.03;21.15;;;1.00;99.90;;;;;;6130307;23;20009;-82
2023/01/20 06:28:27;;;;;;;30.13;20.08;;;0.90;99.90;;;;;;6132460;23;20057;-83
2023/01/20 06:31:05;;;;;;;32.20;20.83;;;0.90;99.90;;;;;;6153014;23;20009;-85
2023/01/20 06:33:32;;;;;;;34.75;21.30;;;0.90;99.90;;;;;;6123954;23;20041;-87
2023/01/20 06:35:58;;;;;;;30.75;21.17;;;0.90;99.90;;;;;;6129005;23;20442;-87
2023/01/20 06:38:25;;;;;;;29.85;21.08;;;0.90;99.90;;;;;;6133548;23;20017;-82
2023/01/20 06:40:56;;;;;;;33.50;21.65;;;0.90;99.90;;;;;;6130701;23;20021;-85
2023/01/20 06:43:21;;;;;;;36.13;21.02;;;1.90;99.90;;;;;;6129550;23;20037;-82
2023/01/20 06:45:47;;;;;;;31.85;21.55;;;0.90;99.90;;;;;;6153214;23;20022;-83
2023/01/20 06:48:13;;;;;;;31.55;21.63;;;0.90;99.90;;;;;;6133830;23;20101;-82
2023/01/20 06:50:38;;;;;;;32.00;21.85;;;1.00;99.90;;;;;;6133655;23;20068;-81
2023/01/20 06:53:04;;;;;;;31.42;22.63;;;1.00;99.90;;;;;;6158571;23;20013;-81
2023/01/20 06:55:33;;;;;;;31.48;22.60;;;0.90;99.90;;;;;;6132621;23;20036;-86
2023/01/20 06:57:59;;;;;;;31.00;21.65;;;2.10;99.90;;;;;;6129440;23;20025;-83
2023/01/20 07:00:27;;;;;;;30.70;22.17;;;0.90;99.90;;;;;;6155776;23;20017;-83
2023/01/20 07:02:53;;;;;;;35.42;22.50;;;0.90;99.90;;;;;;6132263;23;20028;-83
2023/01/20 07:05:30;;;;;;;32.95;23.33;;;0.90;99.90;;;;;;6127554;23;20125;-84
2023/01/20 07:07:55;;;;;;;33.08;22.08;;;0.90;99.90;;;;;;6126726;23;20492;-84
2023/01/20 07:10:21;;;;;;;28.70;21.23;;;0.90;99.90;;;;;;6131712;23;20025;-82
2023/01/20 07:12:46;;;;;;;31.55;22.33;;;1.00;99.90;;;;;;6133217;23;20020;-85
2023/01/20 07:15:12;;;;;;;31.92;23.17;;;1.00;99.90;;;;;;6133398;23;20017;-83
2023/01/20 07:17:38;;;;;;;30.40;23.25;;;1.00;99.90;;;;;;6132652;23;20040;-83
2023/01/20 07:20:04;;;;;;;34.33;23.65;;;1.00;99.90;;;;;;6133263;23;20040;-82
2023/01/20 07:22:29;;;;;;;31.17;23.52;;;1.00;99.90;;;;;;6159196;23;20022;-82
2023/01/20 07:24:55;;;;;;;32.45;23.02;;;0.90;99.90;;;;;;6157481;23;20021;-84
2023/01/20 07:27:20;;;;;;;32.10;23.80;;;1.00;99.90;;;;;;6157470;23;20097;-82
2023/01/20 07:29:46;;;;;;;30.85;22.88;;;0.90;99.90;;;;;;6133095;23;20020;-82
2023/01/20 07:32:11;;;;;;;34.28;22.75;;;1.00;99.90;;;;;;6132756;23;20013;-82
2023/01/20 07:34:37;;;;;;;33.88;24.00;;;1.00;99.90;;;;;;6156313;23;20089;-82
2023/01/20 07:37:02;;;;;;;32.90;23.63;;;1.00;99.90;;;;;;6134938;23;20021;-82
2023/01/20 07:39:28;;;;;;;36.25;25.30;;;1.00;99.90;;;;;;6134164;23;20018;-84
2023/01/20 07:41:54;;;;;;;37.75;25.05;;;1.00;99.90;;;;;;6133136;23;20033;-83
2023/01/20 07:44:19;;;;;;;38.05;24.70;;;1.10;99.90;;;;;;6133136;23;20017;-84
2023/01/20 07:46:45;;;;;;;33.30;24.38;;;1.10;99.90;;;;;;6156109;23;20018;-82
2023/01/20 07:49:11;;;;;;;36.08;24.65;;;1.00;99.90;;;;;;6131407;23;20088;-85
2023/01/20 07:51:36;;;;;;;32.38;25.25;;;1.30;99.90;;;;;;6133016;23;20014;-84
2023/01/20 07:54:03;;;;;;;36.08;25.50;;;1.10;99.90;;;;;;6134309;23;20386;-82
2023/01/20 07:56:29;;;;;;;34.00;23.88;;;1.10;99.90;;;;;;6131704;23;20017;-85
2023/01/20 07:58:55;;;;;;;33.45;23.38;;;1.10;99.90;;;;;;6156179;23;20080;-83
2023/01/20 08:01:29;;;;;;;31.42;23.15;;;1.10;99.90;;;;;;6125721;23;20022;-83
2023/01/20 08:03:55;;;;;;;32.28;23.50;;;1.10;99.90;;;;;;6106034;23;20088;-85
2023/01/20 08:06:23;;;;;;;36.92;24.70;;;1.10;99.90;;;;;;6133000;23;20017;-83
2023/01/20 08:08:49;;;;;;;36.03;26.63;;;1.10;99.90;;;;;;6130520;23;20370;-87
2023/01/20 08:11:17;;;;;;;41.45;25.50;;;1.10;99.90;;;;;;6158268;23;20009;-82
2023/01/20 08:13:43;;;;;;;36.28;24.58;;;1.10;99.90;;;;;;6129954;23;20010;-84
2023/01/20 08:16:12;;;;;;;35.38;24.85;;;1.10;99.90;;;;;;6131492;23;20041;-84
2023/01/20 08:18:37;;;;;;;37.55;25.10;;;1.10;99.90;;;;;;6131203;23;20018;-82
2023/01/20 08:21:07;;;;;;;38.83;25.10;;;1.10;99.90;;;;;;6158109;23;20024;-83
2023/01/20 08:23:36;;;;;;;36.10;25.20;;;1.10;99.90;;;;;;6158338;23;20149;-86
2023/01/20 08:26:05;;;;;;;39.33;26.13;;;1.10;99.90;;;;;;6134604;23;20056;-82
2023/01/20 08:28:33;;;;;;;41.13;25.70;;;1.10;99.90;;;;;;6133920;23;20088;-88
2023/01/20 08:31:08;;;;;;;41.08;27.85;;;1.10;99.90;;;;;;6156062;23;20013;-87
2023/01/20 08:33:33;;;;;;;38.53;26.60;;;1.20;99.90;;;;;;6152444;23;20017;-88
2023/01/20 08:36:17;;;;;;;40.15;25.88;;;1.10;99.90;;;;;;6153814;23;20012;-85
2023/01/20 08:38:43;;;;;;;39.72;25.58;;;1.10;99.90;;;;;;6130625;23;20021;-85
2023/01/20 08:41:15;;;;;;;39.00;25.27;;;1.20;99.90;;;;;;6156626;23;20068;-83
2023/01/20 08:43:42;;;;;;;38.85;25.67;;;2.00;99.90;;;;;;6128943;23;20021;-84
2023/01/20 08:46:13;;;;;;;39.78;26.10;;;1.20;99.90;;;;;;6126333;23;20021;-84
2023/01/20 08:48:40;;;;;;;43.90;27.05;;;1.20;99.90;;;;;;6129159;23;20028;-81
2023/01/20 08:51:21;;;;;;;42.08;26.92;;;1.20;99.90;;;;;;6130719;23;20068;-85
2023/01/20 08:53:47;;;;;;;44.50;25.80;;;1.20;99.90;;;;;;6131565;23;20009;-87
2023/01/20 08:56:14;;;;;;;37.22;23.75;;;1.30;99.90;;;;;;6131071;23;20014;-82
2023/01/20 08:58:40;;;;;;;43.50;26.45;;;1.30;99.90;;;;;;6133334;23;20089;-82
2023/01/20 09:01:14;;;;;;;46.47;26.90;;;1.30;99.90;;;;;;6125328;23;20017;-83
2023/01/20 09:03:40;;;;;;;41.17;25.98;;;1.30;99.90;;;;;;6121632;23;20065;-84
2023/01/20 09:06:06;;;;;;;40.92;27.63;;;1.30;99.90;;;;;;6123249;23;20021;-82
2023/01/20 09:08:32;;;;;;;47.60;28.27;;;1.30;99.90;;;;;;6125916;23;20041;-86
2023/01/20 09:11:09;;;;;;;43.92;28.35;;;1.30;99.90;;;;;;6125252;23;20017;-84
2023/01/20 09:13:35;;;;;;;46.30;27.13;;;1.30;99.90;;;;;;6128157;23;20037;-86
2023/01/20 09:16:02;;;;;;;50.33;27.83;;;1.30;99.90;;;;;;6148368;23;20017;-86
2023/01/20 09:18:35;;;;;;;43.85;27.23;;;1.30;99.90;;;;;;6151305;23;20063;-87
2023/01/20 09:21:05;;;;;;;49.45;29.48;;;1.30;99.90;;;;;;6125094;23;20017;-84
2023/01/20 09:23:32;;;;;;;45.08;27.33;;;1.30;99.90;;;;;;6150923;23;20014;-86
2023/01/20 09:25:59;;;;;;;47.55;28.85;;;1.30;99.90;;;;;;6125798;23;20144;-86
2023/01/20 09:28:24;;;;;;;49.90;28.50;;;1.30;99.90;;;;;;6126939;23;20069;-85
2023/01/20 09:30:55;;;;;;;47.53;27.67;;;1.30;99.90;;;;;;6147761;23;20024;-86
2023/01/20 09:33:21;;;;;;;46.20;27.13;;;1.30;99.90;;;;;;6126369;23;20013;-87
2023/01/20 09:35:56;;;;;;;42.25;26.42;;;1.40;99.90;;;;;;6149440;23;20329;-83
2023/01/20 09:44:27;;;;;;;47.22;25.77;;;1.40;99.90;;;;;;6150210;23;20056;-84
2023/01/20 09:47:21;;;;;;;42.30;26.45;;;1.40;99.90;;;;;;6125085;23;20020;-86
2023/01/20 09:53:29;;;;;;;44.95;25.55;;;1.50;99.90;;;;;;6152375;23;20022;-82
2023/01/20 09:56:13;;;;;;;52.83;27.52;;;1.60;99.90;;;;;;6123007;23;20024;-85
2023/01/20 09:59:07;;;;;;;44.78;26.02;;;1.50;99.90;;;;;;6128314;23;20025;-84
2023/01/20 10:01:44;;;;;;;43.90;24.33;;;1.50;99.90;;;;;;6151094;23;20209;-85
2023/01/20 10:04:19;;;;;;;44.58;26.85;;;1.60;99.90;;;;;;6124765;23;20627;-84
2023/01/20 10:06:58;;;;;;;43.38;24.63;;;1.60;99.90;;;;;;6153168;23;20101;-85
2023/01/20 10:09:32;;;;;;;39.10;24.35;;;1.60;99.90;;;;;;6151988;23;20009;-83
2023/01/20 10:12:24;;;;;;;44.25;25.75;;;1.60;99.90;;;;;;6124707;23;20530;-87
2023/01/20 10:14:59;;;;;;;39.28;24.02;;;1.60;99.90;;;;;;6124212;23;20014;-86
2023/01/20 10:17:46;;;;;;;36.80;23.90;;;1.70;99.90;;;;;;6121053;23;20049;-86
2023/01/20 10:20:27;;;;;;;38.05;22.20;;;1.60;99.90;;;;;;6125589;23;20406;-85
2023/01/20 10:23:11;;;;;;;38.30;23.48;;;1.60;99.90;;;;;;6124035;23;20017;-85
2023/01/20 10:25:58;;;;;;;37.72;23.08;;;1.70;99.90;;;;;;6122964;23;20064;-85
2023/01/20 10:28:29;;;;;;;33.28;21.85;;;1.70;99.90;;;;;;6147039;23;20018;-87
2023/01/20 10:31:01;;;;;;;36.45;21.67;;;1.60;99.90;;;;;;6122951;23;20021;-82
2023/01/20 10:33:33;;;;;;;34.22;20.90;;;1.60;99.90;;;;;;6133919;23;20064;-82
2023/01/20 10:35:59;;;;;;;33.08;21.13;;;1.70;99.90;;;;;;6127822;23;20374;-84
2023/01/20 10:38:51;;;;;;;33.85;20.60;;;1.60;99.90;;;;;;6126427;23;20033;-86
2023/01/20 10:41:37;;;;;;;30.60;19.15;;;1.60;99.90;;;;;;6122683;23;20101;-82
2023/01/20 10:44:10;;;;;;;32.92;20.77;;;1.50;99.90;;;;;;6123426;23;20022;-87
2023/01/20 10:46:54;;;;;;;30.02;20.77;;;1.60;99.90;;;;;;6115176;23;20021;-87
2023/01/20 10:49:39;;;;;;;33.00;21.85;;;1.60;99.90;;;;;;6114605;23;20017;-86
2023/01/20 10:52:23;;;;;;;35.80;22.45;;;1.60;99.90;;;;;;6117286;23;20017;-85
2023/01/20 10:55:13;;;;;;;35.53;22.30;;;1.60;99.90;;;;;;6140299;23;20018;-84
2023/01/20 10:57:47;;;;;;;32.95;21.33;;;1.60;99.90;;;;;;6140646;23;20076;-84
2023/01/20 11:00:23;;;;;;;38.80;23.60;;;1.60;99.90;;;;;;6137645;23;20126;-86
2023/01/20 11:02:51;;;;;;;33.42;23.17;;;1.70;99.90;;;;;;6121790;23;20358;-83
2023/01/20 11:05:29;;;;;;;36.67;22.15;;;1.60;99.90;;;;;;6123809;23;20021;-84
2023/01/20 11:07:57;;;;;;;39.47;23.50;;;1.70;99.90;;;;;;6123784;23;20101;-86
2023/01/20 11:10:28;;;;;;;37.75;23.10;;;1.70;99.90;;;;;;6148543;23;20013;-83
2023/01/20 11:12:58;;;;;;;34.35;22.15;;;1.80;99.90;;;;;;6123690;23;20021;-84
2023/01/20 11:16:08;;;;;;;34.10;22.63;;;1.70;99.90;;;;;;6145119;23;20037;-87
2023/01/20 11:18:33;;;;;;;36.58;21.38;;;1.70;99.90;;;;;;6115962;23;20013;-83
2023/01/20 11:21:07;;;;;;;31.13;19.83;;;1.70;99.90;;;;;;6147555;23;20676;-85
2023/01/20 11:23:47;;;;;;;31.77;19.23;;;1.60;99.90;;;;;;6148635;23;20021;-87
2023/01/20 11:26:34;;;;;;;32.60;20.13;;;1.70;99.90;;;;;;6123981;23;20014;-84
2023/01/20 11:29:27;;;;;;;35.80;22.48;;;1.60;99.90;;;;;;6122170;23;20386;-86
2023/01/20 11:32:08;;;;;;;36.28;21.50;;;1.60;99.90;;;;;;6119983;23;20064;-84
2023/01/20 11:34:35;;;;;;;34.25;20.92;;;1.40;99.90;;;;;;6103447;23;20048;-84
2023/01/20 11:40:59;;;;;;;33.50;19.80;;;1.70;99.90;;;;;;6055903;23;20055;-81
2023/01/20 11:43:34;;;;;;;32.95;20.92;;;1.70;99.90;;;;;;6126384;23;20550;-81
2023/01/20 11:46:25;;;;;;;31.23;21.30;;;1.70;99.90;;;;;;6128219;23;20630;-86
2023/01/20 11:49:17;;;;;;;34.75;20.30;;;1.70;99.90;;;;;;6128151;23;20398;-83
2023/01/20 11:51:47;;;;;;;34.63;21.15;;;1.70;99.90;;;;;;6154200;23;20017;-82
2023/01/20 11:54:22;;;;;;;34.75;21.88;;;1.70;99.90;;;;;;6122448;23;20029;-84
2023/01/20 11:56:54;;;;;;;34.13;21.77;;;1.70;99.90;;;;;;6129232;23;20025;-82
2023/01/20 11:59:27;;;;;;;35.72;21.85;;;1.70;99.90;;;;;;6128457;23;20755;-82
2023/01/20 12:02:17;;;;;;;33.97;21.50;;;0.70;99.90;;;;;;6153313;23;20014;-81
2023/01/20 12:05:12;;;;;;;34.03;22.05;;;1.70;99.90;;;;;;6123876;23;20024;-80
2023/01/20 12:07:40;;;;;;;32.75;21.08;;;1.70;99.90;;;;;;6146552;23;20017;-80
2023/01/20 12:10:24;;;;;;;36.92;22.83;;;1.70;99.90;;;;;;6148168;23;20017;-81
2023/01/20 12:12:58;;;;;;;37.45;23.10;;;1.70;99.90;;;;;;6148970;23;20867;-80
2023/01/20 12:15:33;;;;;;;38.10;22.10;;;1.70;99.90;;;;;;6150083;23;20020;-84
2023/01/20 12:18:19;;;;;;;40.80;24.93;;;1.70;99.90;;;;;;6126845;23;20014;-83
2023/01/20 12:21:16;;;;;;;39.40;24.83;;;1.80;99.90;;;;;;6128670;23;20021;-82
2023/01/20 12:24:02;;;;;;;34.42;22.90;;;1.80;99.90;;;;;;6154273;23;20016;-82
2023/01/20 12:26:27;;;;;;;31.93;20.77;;;1.80;99.90;;;;;;6154481;23;20024;-83
2023/01/20 12:28:53;;;;;;;34.88;22.38;;;1.80;99.90;;;;;;6130680;23;20541;-81
2023/01/20 12:31:22;;;;;;;37.10;24.08;;;1.80;99.90;;;;;;6129512;23;20024;-81
2023/01/20 12:34:13;;;;;;;35.08;23.45;;;1.90;99.90;;;;;;6129565;23;20099;-83
2023/01/20 12:37:09;;;;;;;34.10;22.73;;;1.70;99.90;;;;;;6116394;23;20044;-81
2023/01/20 12:39:59;;;;;;;37.13;23.67;;;1.70;99.90;;;;;;6154124;23;20017;-82
2023/01/20 12:42:37;;;;;;;30.98;20.65;;;1.70;99.90;;;;;;6132027;23;20013;-82
2023/01/20 12:45:25;;;;;;;31.50;21.08;;;1.70;99.90;;;;;;6155092;23;20018;-81
2023/01/20 12:48:09;;;;;;;30.05;20.27;;;1.70;99.90;;;;;;6131293;23;20096;-84
2023/01/20 12:50:56;;;;;;;32.13;21.63;;;1.70;99.90;;;;;;6152129;23;20097;-84
2023/01/20 12:53:41;;;;;;;31.67;21.52;;;1.80;99.90;;;;;;6133005;23;20024;-82
2023/01/20 12:56:35;;;;;;;32.40;22.80;;;1.80;99.90;;;;;;6134365;23;20013;-83
2023/01/20 12:59:36;;;;;;;31.17;20.23;;;1.70;99.90;;;;;;6133858;23;20079;-84
2023/01/20 13:02:11;;;;;;;35.55;22.35;;;1.80;99.90;;;;;;6134045;23;20082;-81
2023/01/20 13:05:08;;;;;;;33.60;21.55;;;1.80;99.90;;;;;;6161490;23;20024;-81
2023/01/20 13:07:45;;;;;;;;;;;1.80;99.90;;;;;;6136509;23;20049;-85
2023/01/20 13:10:31;;;;;;;35.40;21.23;;;1.80;99.90;;;;;;6134882;23;20359;-80
2023/01/20 13:13:16;;;;;;;31.55;21.65;;;1.80;99.90;;;;;;6135334;23;20089;-81
2023/01/20 13:15:51;;;;;;;33.33;22.02;;;1.80;99.90;;;;;;6132027;23;20065;-82